createdAt,value
2023-05-05T00:00:40.729Z,100.00
2023-05-05T00:03:43.032Z,100.00
2023-05-05T00:06:44.769Z,100.00
2023-05-05T00:09:46.412Z,100.00
2023-05-05T00:12:48.290Z,100.00
2023-05-05T00:15:50.596Z,100.00
2023-05-05T00:18:52.209Z,100.00
2023-05-05T00:21:53.786Z,100.00
2023-05-05T00:24:55.619Z,100.00
2023-05-05T00:27:57.164Z,100.00
2023-05-05T00:30:58.798Z,100.00
2023-05-05T00:34:00.365Z,100.00
2023-05-05T00:37:02.462Z,100.00
2023-05-05T00:40:04.205Z,100.00
2023-05-05T00:43:05.786Z,100.00
2023-05-05T00:46:37.849Z,100.00
2023-05-05T00:49:39.502Z,100.00
2023-05-05T00:52:41.141Z,100.00
2023-05-05T00:55:42.705Z,100.00
2023-05-05T00:58:44.381Z,100.00
2023-05-05T01:01:46.289Z,100.00
2023-05-05T01:04:47.989Z,100.00
2023-05-05T01:08:05.007Z,100.00
2023-05-05T01:11:21.551Z,100.00
2023-05-05T01:14:43.267Z,100.00
2023-05-05T01:18:08.064Z,100.00
2023-05-05T01:21:23.484Z,100.00
2023-05-05T01:24:42.147Z,100.00
2023-05-05T01:28:02.078Z,100.00
2023-05-05T01:31:18.906Z,100.00
2023-05-05T01:34:53.675Z,100.00
2023-05-05T01:38:03.374Z,100.00
2023-05-05T01:41:12.339Z,100.00
2023-05-05T01:44:14.803Z,100.00
2023-05-05T01:47:17.054Z,100.00
2023-05-05T01:50:18.646Z,100.00
2023-05-05T01:53:20.454Z,100.00
2023-05-05T01:56:23.413Z,100.00
2023-05-05T01:59:25.671Z,100.00
2023-05-05T02:02:28.383Z,100.00
2023-05-05T02:05:29.957Z,100.00
2023-05-05T02:08:31.624Z,100.00
2023-05-05T02:11:33.214Z,100.00
2023-05-05T02:14:34.864Z,100.00
2023-05-05T02:17:36.431Z,100.00
2023-05-05T02:20:38.790Z,100.00
2023-05-05T02:23:40.554Z,100.00
2023-05-05T02:26:42.131Z,100.00
2023-05-05T02:29:48.397Z,100.00
2023-05-05T02:32:58.977Z,100.00
2023-05-05T02:36:05.625Z,100.00
2023-05-05T02:39:11.197Z,100.00
2023-05-05T02:42:15.020Z,100.00
2023-05-05T02:45:17.728Z,100.00
2023-05-05T02:48:19.362Z,100.00
2023-05-05T02:51:20.911Z,100.00
2023-05-05T02:54:22.624Z,100.00
2023-05-05T02:57:38.021Z,100.00
2023-05-05T03:00:58.282Z,100.00
2023-05-05T03:04:13.105Z,100.00
2023-05-05T03:07:27.624Z,100.00
2023-05-05T03:10:33.026Z,100.00
2023-05-05T03:13:37.847Z,100.00
2023-05-05T03:16:40.856Z,100.00
2023-05-05T03:19:43.197Z,100.00
2023-05-05T03:22:44.769Z,100.00
2023-05-05T03:25:49.416Z,100.00
2023-05-05T03:28:51.216Z,100.00
2023-05-05T03:31:52.880Z,100.00
2023-05-05T03:34:54.472Z,100.00
2023-05-05T03:37:56.187Z,100.00
2023-05-05T03:41:01.207Z,100.00
2023-05-05T03:44:02.770Z,100.00
2023-05-05T03:47:04.372Z,100.00
2023-05-05T03:50:07.469Z,100.00
2023-05-05T03:53:09.213Z,100.00
2023-05-05T03:56:10.795Z,100.00
2023-05-05T03:59:12.455Z,100.00
2023-05-05T04:02:14.849Z,100.00
2023-05-05T04:05:17.592Z,100.00
2023-05-05T04:08:21.892Z,100.00
2023-05-05T04:11:23.450Z,100.00
2023-05-05T04:14:25.154Z,100.00
2023-05-05T04:17:26.702Z,100.00
2023-05-05T04:20:31.316Z,100.00
2023-05-05T04:23:32.931Z,100.00
2023-05-05T04:26:34.544Z,100.00
2023-05-05T04:29:36.212Z,100.00
2023-05-05T04:32:37.805Z,100.00
2023-05-05T04:35:39.348Z,100.00
2023-05-05T04:38:40.914Z,100.00
2023-05-05T04:41:42.522Z,100.00
2023-05-05T04:44:44.110Z,100.00
2023-05-05T04:47:45.735Z,100.00
2023-05-05T04:50:47.355Z,100.00
2023-05-05T04:53:48.929Z,100.00
2023-05-05T04:56:50.602Z,100.00
2023-05-05T04:59:52.275Z,100.00
2023-05-05T05:02:53.955Z,100.00
2023-05-05T05:05:55.569Z,100.00
2023-05-05T05:08:57.155Z,100.00
2023-05-05T05:12:04.511Z,100.00
2023-05-05T05:15:06.765Z,100.00
2023-05-05T05:18:08.304Z,100.00
2023-05-05T05:21:10.359Z,100.00
2023-05-05T05:24:11.956Z,100.00
2023-05-05T05:27:13.509Z,100.00
2023-05-05T05:30:15.738Z,100.00
2023-05-05T05:33:17.413Z,100.00
2023-05-05T05:36:21.205Z,100.00
2023-05-05T05:39:23.269Z,100.00
2023-05-05T05:42:24.680Z,100.00
2023-05-05T05:45:26.571Z,100.00
2023-05-05T05:48:29.420Z,100.00
2023-05-05T05:51:31.582Z,100.00
2023-05-05T05:54:34.509Z,100.00
2023-05-05T05:57:36.133Z,100.00
2023-05-05T06:00:37.677Z,100.00
2023-05-05T06:03:39.288Z,100.00
2023-05-05T06:06:41.121Z,100.00
2023-05-05T06:09:42.684Z,100.00
2023-05-05T06:12:44.337Z,100.00
2023-05-05T06:15:46.205Z,100.00
2023-05-05T06:18:47.957Z,100.00
2023-05-05T06:21:49.573Z,100.00
2023-05-05T06:24:51.146Z,100.00
2023-05-05T06:27:53.105Z,100.00
2023-05-05T06:30:54.719Z,100.00
2023-05-05T06:33:56.338Z,100.00
2023-05-05T06:36:57.882Z,100.00
2023-05-05T06:39:59.469Z,100.00
2023-05-05T06:43:01.042Z,100.00
2023-05-05T06:46:02.865Z,100.00
2023-05-05T06:49:04.378Z,100.00
2023-05-05T06:52:08.758Z,100.00
2023-05-05T06:55:10.380Z,100.00
2023-05-05T06:58:12.140Z,100.00
2023-05-05T07:01:13.718Z,100.00
2023-05-05T07:04:15.376Z,100.00
2023-05-05T07:07:17.074Z,100.00
2023-05-05T07:10:18.706Z,100.00
2023-05-05T07:13:20.397Z,100.00
2023-05-05T07:16:23.366Z,100.00
2023-05-05T07:19:25.066Z,100.00
2023-05-05T07:22:26.692Z,100.00
2023-05-05T07:25:28.278Z,100.00
2023-05-05T07:28:29.946Z,100.00
2023-05-05T07:31:31.761Z,100.00
2023-05-05T07:34:34.600Z,100.00
2023-05-05T07:37:36.320Z,100.00
2023-05-05T07:40:37.953Z,100.00
2023-05-05T07:43:44.251Z,100.00
2023-05-05T07:46:46.488Z,100.00
2023-05-05T07:49:48.168Z,100.00
2023-05-05T07:52:53.935Z,100.00
2023-05-05T07:56:03.963Z,100.00
2023-05-05T07:59:05.655Z,100.00
2023-05-05T08:02:07.410Z,100.00
2023-05-05T08:05:09.482Z,100.00
2023-05-05T08:08:11.419Z,100.00
2023-05-05T08:11:12.972Z,100.00
2023-05-05T08:14:15.180Z,100.00
2023-05-05T08:17:19.665Z,100.00
2023-05-05T08:20:21.581Z,100.00
2023-05-05T08:23:23.261Z,100.00
2023-05-05T08:26:24.885Z,100.00
2023-05-05T08:29:26.526Z,100.00
2023-05-05T08:32:29.861Z,100.00
2023-05-05T08:35:31.570Z,100.00
2023-05-05T08:38:33.183Z,100.00
2023-05-05T08:41:34.770Z,100.00
2023-05-05T08:44:36.971Z,100.00
2023-05-05T08:47:38.787Z,100.00
2023-05-05T08:50:40.596Z,100.00
2023-05-05T08:53:54.240Z,100.00
2023-05-05T08:56:55.850Z,100.00
2023-05-05T08:59:57.445Z,100.00
2023-05-05T09:02:59.639Z,100.00
2023-05-05T09:06:01.308Z,100.00
2023-05-05T09:09:03.002Z,100.00
2023-05-05T09:12:04.997Z,100.00
2023-05-05T09:15:08.892Z,100.00
2023-05-05T09:18:13.411Z,100.00
2023-05-05T09:21:26.008Z,100.00
2023-05-05T09:24:27.659Z,100.00
2023-05-05T09:27:29.213Z,100.00
2023-05-05T09:30:31.483Z,100.00
2023-05-05T09:33:33.056Z,100.00
2023-05-05T09:36:45.498Z,100.00
2023-05-05T09:39:53.767Z,100.00
2023-05-05T09:43:01.117Z,100.00
2023-05-05T09:46:07.475Z,100.00
2023-05-05T09:49:14.347Z,100.00
2023-05-05T09:52:16.010Z,100.00
2023-05-05T09:55:18.136Z,100.00
2023-05-05T09:58:37.907Z,100.00
2023-05-05T10:01:39.783Z,100.00
2023-05-05T10:04:44.039Z,100.00
2023-05-05T10:07:46.537Z,100.00
2023-05-05T10:10:58.343Z,100.00
2023-05-05T10:13:59.982Z,100.00
2023-05-05T10:17:01.760Z,100.00
2023-05-05T10:20:06.965Z,100.00
2023-05-05T10:23:08.684Z,100.00
2023-05-05T10:26:10.643Z,100.00
2023-05-05T10:29:42.420Z,100.00
2023-05-05T10:35:53.370Z,100.00
2023-05-05T10:38:58.011Z,100.00
2023-05-05T10:42:01.901Z,100.00
2023-05-05T10:45:03.752Z,100.00
2023-05-05T10:48:09.735Z,100.00
2023-05-05T10:51:24.115Z,100.00
2023-05-05T10:54:38.358Z,100.00
2023-05-05T10:57:41.781Z,99.54
2023-05-05T11:00:43.185Z,100.00
2023-05-05T11:03:44.716Z,98.34
2023-05-05T11:07:14.684Z,98.36
2023-05-05T11:10:18.880Z,100.00
2023-05-05T11:13:21.258Z,98.65
2023-05-05T11:16:47.901Z,99.49
2023-05-05T11:19:52.201Z,94.54
2023-05-05T11:23:02.531Z,97.15
2023-05-05T11:26:04.285Z,93.96
2023-05-05T11:29:06.431Z,95.56
2023-05-05T11:32:12.458Z,95.52
2023-05-05T11:35:14.801Z,95.72
2023-05-05T11:38:16.410Z,93.18
2023-05-05T11:41:33.184Z,95.13
2023-05-05T11:44:34.850Z,96.10
2023-05-05T11:47:36.586Z,95.51
2023-05-05T11:50:38.169Z,89.04
2023-05-05T11:53:46.274Z,89.59
2023-05-05T11:56:51.660Z,88.60
2023-05-05T12:00:01.234Z,88.93
2023-05-05T12:03:03.232Z,91.02
2023-05-05T12:06:05.709Z,93.71
2023-05-05T12:09:11.852Z,86.89
2023-05-05T12:12:13.505Z,88.35
2023-05-05T12:15:15.105Z,91.68
2023-05-05T12:18:20.296Z,91.35
2023-05-05T12:21:21.932Z,94.67
2023-05-05T12:24:23.476Z,95.51
2023-05-05T12:27:26.435Z,96.08
2023-05-05T12:30:28.382Z,98.31
2023-05-05T12:33:30.261Z,97.38
2023-05-05T12:36:33.573Z,93.23
2023-05-05T12:39:36.557Z,92.69
2023-05-05T12:42:39.025Z,94.01
2023-05-05T12:45:40.834Z,96.00
2023-05-05T12:48:48.183Z,97.48
2023-05-05T12:51:56.643Z,97.25
2023-05-05T12:54:59.339Z,94.97
2023-05-05T12:58:07.034Z,98.69
2023-05-05T13:01:09.197Z,100.00
2023-05-05T13:04:14.276Z,100.00
2023-05-05T13:07:16.125Z,100.00
2023-05-05T13:10:18.009Z,100.00
2023-05-05T13:13:21.809Z,100.00
2023-05-05T13:16:23.490Z,100.00
2023-05-05T13:19:25.233Z,100.00
2023-05-05T13:22:26.668Z,100.00
2023-05-05T13:25:28.218Z,100.00
2023-05-05T13:28:30.009Z,100.00
2023-05-05T13:31:31.601Z,100.00
2023-05-05T13:34:33.283Z,100.00
2023-05-05T13:37:34.778Z,100.00
2023-05-05T13:40:36.649Z,100.00
2023-05-05T13:43:38.274Z,100.00
2023-05-05T13:46:40.665Z,100.00
2023-05-05T13:49:42.434Z,100.00
2023-05-05T13:52:44.056Z,100.00
2023-05-05T13:55:47.608Z,100.00
2023-05-05T13:59:07.675Z,100.00
2023-05-05T14:02:10.183Z,100.00
2023-05-05T14:15:15.517Z,100.00
2023-05-05T14:18:17.041Z,100.00
2023-05-05T14:21:18.639Z,100.00
2023-05-05T14:24:20.218Z,100.00
2023-05-05T14:27:21.777Z,100.00
2023-05-05T14:30:23.412Z,100.00
2023-05-05T14:33:25.105Z,100.00
2023-05-05T14:36:26.941Z,100.00
2023-05-05T14:39:28.594Z,100.00
2023-05-05T14:42:33.245Z,100.00
2023-05-05T15:16:03.230Z,100.00
2023-05-05T15:19:44.489Z,100.00
2023-05-05T15:48:52.157Z,100.00
2023-05-05T16:00:03.972Z,100.00
2023-05-05T16:03:19.266Z,100.00
2023-05-05T16:07:06.602Z,100.00
2023-05-05T16:10:19.195Z,100.00
2023-05-05T16:13:50.646Z,100.00
2023-05-05T16:17:04.507Z,100.00
2023-05-05T16:20:23.272Z,100.00
2023-05-05T16:23:54.082Z,100.00
2023-05-05T16:27:04.829Z,100.00
2023-05-05T16:30:10.504Z,100.00
2023-05-05T16:33:16.677Z,100.00
2023-05-05T16:36:29.476Z,100.00
2023-05-05T16:39:47.294Z,100.00
2023-05-05T16:42:57.067Z,100.00
2023-05-05T16:46:01.621Z,100.00
2023-05-05T16:49:05.709Z,100.00
2023-05-05T16:52:17.388Z,100.00
2023-05-05T16:55:32.241Z,100.00
2023-05-05T16:58:48.164Z,100.00
2023-05-05T17:02:05.197Z,100.00
2023-05-05T17:05:09.844Z,100.00
2023-05-05T17:08:22.845Z,100.00
2023-05-05T17:11:29.037Z,100.00
2023-05-05T17:14:42.793Z,100.00
2023-05-05T17:17:52.917Z,100.00
2023-05-05T17:20:59.012Z,100.00
2023-05-05T17:24:10.289Z,100.00
2023-05-05T17:27:18.931Z,100.00
2023-05-05T17:30:30.332Z,100.00
2023-05-05T17:33:32.342Z,100.00
2023-05-05T17:36:42.494Z,100.00
2023-05-05T17:39:48.053Z,100.00
2023-05-05T17:43:08.749Z,100.00
2023-05-05T17:46:22.901Z,100.00
2023-05-05T17:49:47.982Z,100.00
2023-05-05T17:52:50.145Z,100.00
2023-05-05T17:56:09.440Z,100.00
2023-05-05T17:59:23.774Z,100.00
2023-05-05T18:02:48.097Z,100.00
2023-05-05T18:06:20.490Z,100.00
2023-05-05T18:09:31.177Z,100.00
2023-05-05T18:13:35.603Z,100.00
2023-05-05T18:16:32.958Z,100.00
2023-05-05T18:19:36.754Z,100.00
2023-05-05T18:22:45.669Z,100.00
2023-05-05T18:25:52.735Z,100.00
2023-05-05T18:29:01.391Z,100.00
2023-05-05T18:32:11.492Z,100.00
2023-05-05T18:35:13.716Z,100.00
2023-05-05T18:38:15.514Z,100.00
2023-05-05T18:41:19.225Z,100.00
2023-05-05T18:44:22.552Z,100.00
2023-05-05T18:47:24.356Z,100.00
2023-05-05T18:50:26.974Z,100.00
2023-05-05T18:53:33.217Z,100.00
2023-05-05T18:56:38.950Z,100.00
2023-05-05T18:59:43.266Z,100.00
2023-05-05T19:02:45.405Z,100.00
2023-05-05T19:05:47.507Z,100.00
2023-05-05T19:08:49.275Z,100.00
2023-05-05T19:11:53.378Z,100.00
2023-05-05T19:14:55.316Z,100.00
2023-05-05T19:17:57.049Z,100.00
2023-05-05T19:21:00.286Z,100.00
2023-05-05T19:24:02.006Z,100.00
2023-05-05T19:27:04.052Z,100.00
2023-05-05T19:30:05.931Z,100.00
2023-05-05T19:33:07.799Z,100.00
2023-05-05T19:36:09.947Z,100.00
2023-05-05T19:39:13.710Z,100.00
2023-05-05T19:42:17.234Z,100.00
2023-05-05T19:45:18.691Z,100.00
2023-05-05T19:48:20.886Z,100.00
2023-05-05T19:51:22.702Z,100.00
2023-05-05T19:54:24.688Z,100.00
2023-05-05T19:57:26.441Z,100.00
2023-05-05T20:00:28.144Z,100.00
2023-05-05T20:03:29.957Z,100.00
2023-05-05T20:06:32.204Z,100.00
2023-05-05T20:09:33.811Z,100.00
2023-05-05T20:12:35.606Z,100.00
2023-05-05T20:15:37.363Z,100.00
2023-05-05T20:18:39.086Z,100.00
2023-05-05T20:21:41.139Z,100.00
2023-05-05T20:24:42.927Z,100.00
2023-05-05T20:28:06.393Z,100.00
2023-05-05T20:48:49.326Z,100.00
2023-05-05T20:56:13.563Z,100.00
2023-05-05T20:59:26.977Z,100.00
2023-05-05T21:02:33.850Z,100.00
2023-05-05T21:05:37.338Z,100.00
2023-05-05T21:08:46.356Z,100.00
2023-05-05T21:11:51.013Z,100.00
2023-05-05T21:15:01.974Z,100.00
2023-05-05T21:18:10.432Z,100.00
2023-05-05T21:21:12.348Z,100.00
2023-05-05T21:24:16.009Z,100.00
2023-05-05T21:27:17.886Z,100.00
2023-05-05T21:30:19.847Z,100.00
2023-05-05T21:33:23.491Z,100.00
2023-05-05T21:36:25.317Z,100.00
2023-05-05T21:39:32.688Z,100.00
2023-05-05T21:42:34.673Z,100.00
2023-05-05T21:45:36.469Z,100.00
2023-05-05T21:48:40.085Z,100.00
2023-05-05T22:00:40.421Z,100.00
2023-05-05T22:04:04.779Z,100.00
2023-05-05T22:07:23.616Z,100.00
2023-05-05T22:14:07.896Z,100.00
2023-05-05T22:17:12.100Z,100.00
2023-05-05T22:20:16.916Z,100.00
2023-05-05T22:23:29.891Z,100.00
2023-05-05T22:26:33.944Z,100.00
2023-05-05T22:29:36.907Z,100.00
2023-05-05T22:32:38.869Z,100.00
2023-05-05T22:35:42.153Z,100.00
2023-05-05T22:38:46.068Z,100.00
2023-05-05T22:41:50.024Z,100.00
2023-05-05T22:44:51.723Z,100.00
2023-05-05T22:47:53.494Z,100.00
2023-05-05T22:50:55.284Z,100.00
2023-05-05T22:53:57.885Z,100.00
2023-05-05T22:56:59.558Z,100.00
2023-05-05T23:00:01.405Z,100.00
2023-05-05T23:03:03.014Z,100.00
2023-05-05T23:06:04.834Z,100.00
2023-05-05T23:09:07.535Z,100.00
2023-05-05T23:12:09.153Z,100.00
2023-05-05T23:15:11.347Z,100.00
2023-05-05T23:18:13.392Z,100.00
2023-05-05T23:21:16.076Z,100.00
2023-05-05T23:24:17.904Z,100.00
2023-05-05T23:27:22.169Z,100.00
2023-05-05T23:30:23.828Z,100.00
2023-05-05T23:33:25.410Z,100.00
2023-05-05T23:36:29.514Z,100.00
2023-05-05T23:39:33.724Z,100.00
2023-05-05T23:42:35.352Z,100.00
2023-05-05T23:45:37.069Z,100.00
2023-05-05T23:48:38.665Z,100.00
2023-05-05T23:51:40.372Z,100.00
2023-05-05T23:54:42.029Z,100.00
2023-05-05T23:57:43.600Z,100.00
